Saturday, July 21, 2018, 3:31 PM EDT
Back to Local

KACK, Nantucket Memorial Airport

Location: Nantucket, MA, United States Lat: 41.25
Local Time: 3:31 PM EDT (19:31 GMT) Lon: -70.067
Time Zone: US/Eastern Elev: 49 ft

Show me the last for .
Show Decoded

2018-07-21 14:53 METAR KACK 211853Z 09010KT 10SM OVC009 18/15 A3014 RMK AO2 SLP206 T01830150 =
2018-07-21 13:53 METAR KACK 211753Z 08013KT 10SM BKN005 18/16 A3015 RMK AO2 SLP208 T01830156
                 10194 20144 58010 =
2018-07-21 13:13 METAR KACK 211713Z 10013G17KT 10SM BKN004 OVC009 19/16 A3016 RMK AO2 T01940156 =
2018-07-21 12:53 METAR KACK 211653Z 12009KT 10SM BKN007 19/16 A3017 RMK AO2 SLP217 T01890161 =
2018-07-21 11:53 METAR KACK 211553Z 11011KT 10SM BKN007 18/16 A3017 RMK AO2 SLP218 T01780161 =
2018-07-21 10:53 METAR KACK 211453Z 10011KT 6SM BR BKN005 16/15 A3018 RMK AO2 SLP218 T01610150
                 51005 $ =
2018-07-21 10:00 METAR KACK 211400Z 07014KT 2SM BR OVC003 16/15 A3017 RMK AO2 T01610150 $ =
2018-07-21 09:53 METAR KACK 211353Z 06011KT 1 1/2SM BR OVC003 16/15 A3017 RMK AO2 SLP216
                 T01610150 $ =
2018-07-21 08:53 METAR KACK 211253Z 09008KT 3/4SM R24/P6000FT BR VV002 15/15 A3018 RMK AO2 SLP219
                 T01500150 $ =
2018-07-21 08:43 METAR KACK 211243Z 07007KT 3/4SM R24/3500VP6000FT BR VV002 15/15 A3018 RMK AO2
                 T01500150 $ =
2018-07-21 07:53 METAR KACK 211153Z 10008KT 1SM R24/P6000FT BR VV003 14/14 A3016 RMK AO2 SLP213
                 T01440139 10144 20111 50005 $ =
2018-07-21 07:38 METAR KACK 211138Z 09009KT 1 1/4SM R24/3500VP6000FT BR OVC002 14/ A3016 RMK AO2
                 T0144 $ =
2018-07-21 06:53 METAR KACK 211053Z 10005KT 1/2SM R24/2000V2800FT FG VV002 14/ A3016 RMK AO2
                 SLP214 T0139 $ =
2018-07-21 06:42 METAR KACK 211042Z 10009KT 1/4SM R24/1800V2600FT FG VV002 14/ A3016 RMK AO2
                 T0139 $ =
2018-07-21 05:53 METAR KACK 210953Z 09006KT M1/4SM R24/1000V1400FT FG VV002 13/ A3015 RMK AO2
                 SLP211 T0133 $ =
2018-07-21 05:34 METAR KACK 210934Z AUTO 09006KT 1/4SM R24/1400V2000FT FG VV002 13/ A3016 RMK AO2
                 T0133 $ =
2018-07-21 05:18 METAR KACK 210918Z AUTO 11006KT 1/2SM R24/1800V2200FT FG VV002 14/ A3015 RMK AO2
                 T0139 $ =
2018-07-21 04:53 METAR KACK 210853Z AUTO 09006KT 1/2SM R24/2400V4000FT FG VV002 14/ A3015 RMK AO2
                 SLP209 T0139 58002 $ =
2018-07-21 04:22 METAR KACK 210822Z AUTO 11007KT 1/2SM R24/2800VP6000FT FG VV002 13/ A3015 RMK
                 AO2 T0128 $ =
2018-07-21 04:14 METAR KACK 210814Z AUTO 11007KT 1 3/4SM BR FEW003 12/ A3016 RMK AO2 T0122 $ =
2018-07-21 04:10 METAR KACK 210810Z AUTO 11006KT 3SM BR FEW003 12/ A3016 RMK AO2 T0122 $ =
2018-07-21 04:04 METAR KACK 210804Z AUTO 10004KT 1 3/4SM BR FEW003 12/ A3016 RMK AO2 T0122 $ =
2018-07-21 03:55 METAR KACK 210755Z AUTO 09003KT 3SM BR FEW003 13/ A3016 RMK AO2 T0128 $ =
2018-07-21 03:53 METAR KACK 210753Z AUTO 10003KT 1 1/2SM BR FEW003 13/ A3016 RMK AO2 SLP212 T0128
                 $ =
2018-07-21 03:43 METAR KACK 210743Z AUTO 10004KT 3/4SM R24/P6000FT BR CLR 13/ A3016 RMK AO2 T0128
                 $ =
2018-07-21 02:53 METAR KACK 210653Z AUTO 05003KT 10SM CLR 13/ A3015 RMK AO2 SLP210 T0128 $ =
2018-07-21 01:53 METAR KACK 210553Z AUTO 00000KT 10SM CLR 14/ A3016 RMK AO2 SLP212 T0139 10183
                 20117 55005 $ =
2018-07-21 00:53 METAR KACK 210453Z AUTO 00000KT 7SM CLR 12/ A3016 RMK AO2 SLP211 T0117 402280117
                 $ =
2018-07-20 23:53 METAR KACK 210353Z AUTO 00000KT 10SM CLR 12/ A3017 RMK AO2 SLP215 T0122 $ =
2018-07-20 22:53 METAR KACK 210253Z AUTO 00000KT 10SM CLR 14/ A3017 RMK AO2 SLP218 T0144 51003 $
                 =
2018-07-20 21:53 METAR KACK 210153Z 00000KT 10SM CLR 14/ A3017 RMK AO2 SLP218 T0144 $ =
2018-07-20 20:53 METAR KACK 210053Z 00000KT 10SM CLR 16/14 A3017 RMK AO2 SLP215 T01610144 =
2018-07-20 19:53 METAR KACK 202353Z 00000KT 10SM CLR 18/15 A3017 RMK AO2 SLP214 T01830150 10222
                 20183 58003 =
2018-07-20 18:53 METAR KACK 202253Z 18003KT 10SM CLR 19/15 A3017 RMK AO2 SLP217 T01940150 =
2018-07-20 17:53 METAR KACK 202153Z 18004KT 10SM CLR 20/14 A3017 RMK AO2 SLP216 T02000139 =
2018-07-20 16:53 METAR KACK 202053Z 17005KT 10SM CLR 21/13 A3018 RMK AO2 SLP218 T02110133 56008 =
2018-07-20 15:53 METAR KACK 201953Z 14009KT 10SM CLR 22/13 A3018 RMK AO2 SLP219 T02170128 =

Support USWX by starting your Amazon purchase here.